Time;durP1;ratioP1;P1;durP2;ratioP2;P2;SDS_P1;SDS_P2;PMS_P1;PMS_P2;Temp;Humidity;BMP_temperature;BMP_pressure;BME280_temperature;BME280_humidity;BME280_pressure;Samples;Min_cycle;Max_cycle;Signal;HPM_P1;HPM_P2
2022/11/16 00:03:57;;;;;;;8.80;5.23;;;;;;;8.91;100.00;96513.88;18563745;32;20111;-62
2022/11/16 00:14:00;;;;;;;9.37;6.60;;;;;;;8.89;100.00;96499.88;18557113;32;20109;-62
2022/11/16 00:24:03;;;;;;;6.37;5.13;;;;;;;8.87;100.00;96504.75;18562923;32;20135;-62
2022/11/16 00:34:06;;;;;;;6.33;4.80;;;;;;;8.88;100.00;96503.66;18562877;32;20079;-62
2022/11/16 00:44:10;;;;;;;6.13;4.97;;;;;;;8.86;100.00;96509.34;18561784;32;20064;-62
2022/11/16 00:54:13;;;;;;;6.37;5.20;;;;;;;8.85;100.00;96529.28;18561269;32;20112;-62
2022/11/16 01:04:16;;;;;;;6.00;4.73;;;;;;;8.83;100.00;96553.03;18560505;32;20436;-62
2022/11/16 01:14:19;;;;;;;5.33;4.40;;;;;;;8.78;100.00;96562.00;18560303;32;20132;-62
2022/11/16 01:24:23;;;;;;;4.23;3.27;;;;;;;8.76;100.00;96552.59;18560876;32;20052;-62
2022/11/16 01:34:27;;;;;;;2.10;1.80;;;;;;;8.79;100.00;96571.66;18560099;32;20056;-62
2022/11/16 01:44:30;;;;;;;3.23;1.40;;;;;;;8.85;100.00;96568.94;18559891;32;20049;-62
2022/11/16 01:54:38;;;;;;;2.73;2.00;;;;;;;8.91;100.00;96573.19;18559392;32;20387;-62
2022/11/16 02:04:44;;;;;;;2.62;0.90;;;;;;;8.89;100.00;96578.03;18558895;32;20111;-62
2022/11/16 02:15:12;;;;;;;0.90;0.60;;;;;;;8.85;100.00;96577.00;18559196;32;20090;-62
2022/11/16 02:25:29;;;;;;;1.47;0.53;;;;;;;8.77;100.00;96581.94;18565155;32;20105;-62
2022/11/16 02:35:41;;;;;;;1.50;0.87;;;;;;;8.73;100.00;96583.59;18569896;32;20068;-62
2022/11/16 02:45:49;;;;;;;1.17;0.93;;;;;;;8.70;100.00;96597.66;18569295;32;20397;-62
2022/11/16 02:55:53;;;;;;;0.73;0.70;;;;;;;8.70;100.00;96591.44;18562350;32;20053;-62
2022/11/16 03:06:13;;;;;;;2.40;0.80;;;;;;;8.61;100.00;96588.56;18568141;32;20507;-62
2022/11/16 03:16:30;;;;;;;1.40;0.50;;;;;;;8.54;100.00;96593.47;18567325;32;20067;-62
2022/11/16 03:26:47;;;;;;;5.07;2.97;;;;;;;8.53;100.00;96578.41;18567312;32;20072;-62
2022/11/16 03:36:53;;;;;;;4.50;2.97;;;;;;;8.44;100.00;96575.47;18565872;32;20060;-62
2022/11/16 03:46:57;;;;;;;1.90;1.03;;;;;;;8.27;100.00;96568.59;18563080;32;20119;-62
2022/11/16 03:57:01;;;;;;;0.70;0.43;;;;;;;8.12;100.00;96580.31;18561449;32;20064;-62
2022/11/16 04:38:14;;;;;;;1.10;0.27;;;;;;;7.11;100.00;96576.03;18562555;32;20108;-62
2022/11/16 04:48:19;;;;;;;0.10;0.10;;;;;;;6.89;100.00;96564.81;18561032;32;20081;-63
2022/11/16 04:58:22;;;;;;;0.00;0.00;;;;;;;6.72;100.00;96567.81;18561488;32;20055;-62
2022/11/16 05:08:26;;;;;;;0.30;0.10;;;;;;;6.56;100.00;96578.56;18560628;32;20036;-62
2022/11/16 05:18:30;;;;;;;0.10;0.10;;;;;;;6.39;100.00;96583.44;18560572;32;20069;-62
2022/11/16 05:28:34;;;;;;;0.20;0.10;;;;;;;6.34;100.00;96586.91;18546479;32;20048;-62
2022/11/16 05:38:39;;;;;;;0.00;0.00;;;;;;;6.32;100.00;96596.31;18546255;32;20383;-62
2022/11/16 05:48:43;;;;;;;0.67;0.20;;;;;;;6.29;100.00;96600.38;18559384;32;20056;-62
2022/11/16 05:58:47;;;;;;;0.93;0.20;;;;;;;6.22;100.00;96592.56;18564680;32;20463;-62
2022/11/16 06:08:52;;;;;;;0.60;0.20;;;;;;;6.16;100.00;96606.25;18571147;32;20048;-62
2022/11/16 06:19:00;;;;;;;0.50;0.20;;;;;;;6.21;100.00;96612.44;18571069;32;20052;-63
2022/11/16 06:29:04;;;;;;;0.30;0.10;;;;;;;6.28;100.00;96620.22;18563673;32;20048;-64
2022/11/16 06:39:10;;;;;;;1.17;0.33;;;;;;;6.36;100.00;96619.69;18569798;32;20045;-64
2022/11/16 06:49:25;;;;;;;0.43;0.27;;;;;;;6.53;100.00;96632.03;18569248;32;20049;-62
2022/11/16 06:59:29;;;;;;;1.00;0.80;;;;;;;6.66;100.00;96647.59;18568236;32;20128;-62
2022/11/16 07:09:32;;;;;;;0.63;0.40;;;;;;;6.74;100.00;96643.56;18552872;32;20078;-63
2022/11/16 07:19:35;;;;;;;0.73;0.30;;;;;;;6.89;100.00;96650.78;18539970;32;20381;-62
2022/11/16 07:29:38;;;;;;;1.17;0.40;;;;;;;6.76;100.00;96647.59;18566567;32;20060;-62
2022/11/16 07:39:45;;;;;;;0.90;0.30;;;;;;;6.75;100.00;96647.84;18552181;32;20070;-62
2022/11/16 07:49:49;;;;;;;1.03;0.50;;;;;;;6.78;100.00;96632.00;18551763;32;20075;-62
2022/11/16 07:59:52;;;;;;;0.80;0.50;;;;;;;6.89;100.00;96667.75;18564215;32;20057;-63
2022/11/16 08:09:56;;;;;;;0.87;0.40;;;;;;;7.12;100.00;96666.31;18563957;32;20469;-62
2022/11/16 08:20:00;;;;;;;1.00;0.50;;;;;;;7.45;100.00;96653.34;18529650;32;20068;-62
2022/11/16 08:30:08;;;;;;;0.93;0.50;;;;;;;7.79;100.00;96658.03;18548872;32;20090;-62
2022/11/16 08:40:13;;;;;;;0.47;0.30;;;;;;;7.85;100.00;96658.00;18562556;32;20380;-62
2022/11/16 08:50:37;;;;;;;11.68;3.25;;;;;;;7.96;100.00;96678.41;18550211;32;20061;-62
2022/11/16 09:01:12;;;;;;;7.00;1.80;;;;;;;8.25;100.00;96670.44;18560993;32;20357;-62
2022/11/16 09:11:19;;;;;;;1.02;0.62;;;;;;;8.49;100.00;96675.12;18560843;32;20053;-62
2022/11/16 09:21:27;;;;;;;1.57;0.50;;;;;;;8.84;100.00;96669.75;18560393;32;20072;-63
2022/11/16 09:31:36;;;;;;;2.70;0.45;;;;;;;9.39;100.00;96664.88;18562920;32;20061;-63
2022/11/16 09:41:48;;;;;;;1.95;0.80;;;;;;;10.01;100.00;96670.31;18559247;32;20200;-62
2022/11/16 09:51:58;;;;;;;3.10;0.80;;;;;;;10.48;100.00;96670.50;18572578;32;20112;-63
2022/11/16 10:02:35;;;;;;;1.92;0.57;;;;;;;10.64;100.00;96681.09;18557583;32;20085;-62
2022/11/16 10:13:00;;;;;;;1.12;0.30;;;;;;;10.93;100.00;96677.37;18564680;32;20069;-63
2022/11/16 10:23:41;;;;;;;2.15;0.30;;;;;;;11.11;100.00;96673.78;18556670;32;20075;-63
2022/11/16 10:33:48;;;;;;;1.00;0.17;;;;;;;11.45;100.00;96672.63;18567609;32;20473;-62
2022/11/16 10:43:57;;;;;;;0.85;0.32;;;;;;;11.83;100.00;96644.56;18568828;32;20105;-62
2022/11/16 10:54:03;;;;;;;0.95;0.32;;;;;;;11.89;100.00;96632.50;18554622;32;20064;-62
2022/11/16 11:04:13;;;;;;;0.93;0.20;;;;;;;11.71;100.00;96631.53;18554574;32;20053;-62
2022/11/16 11:14:17;;;;;;;0.80;0.28;;;;;;;11.47;100.00;96621.72;18567535;32;20068;-62
2022/11/16 11:24:29;;;;;;;0.47;0.20;;;;;;;11.50;100.00;96623.81;18567025;32;20056;-62
2022/11/16 11:34:53;;;;;;;0.73;0.08;;;;;;;11.63;100.00;96600.53;18554279;32;20087;-62
2022/11/16 11:45:00;;;;;;;0.30;0.08;;;;;;;11.32;100.00;96578.72;18551977;32;20061;-62
2022/11/16 11:55:07;;;;;;;1.05;0.20;;;;;;;11.11;100.00;96579.09;18538326;32;20060;-63
2022/11/16 12:05:25;;;;;;;1.02;0.10;;;;;;;11.30;100.00;96559.28;18564177;32;20377;-62
2022/11/16 12:15:56;;;;;;;0.70;0.10;;;;;;;11.83;100.00;96569.50;18549449;32;20064;-63
2022/11/16 12:26:40;;;;;;;1.25;0.20;;;;;;;12.42;100.00;96557.88;18563424;32;20405;-62
2022/11/16 12:37:02;;;;;;;0.82;0.30;;;;;;;12.52;100.00;96535.13;18562669;32;20449;-62
2022/11/16 12:47:30;;;;;;;1.50;0.20;;;;;;;12.49;100.00;96520.28;18561855;32;20065;-62
2022/11/16 12:57:55;;;;;;;2.25;0.65;;;;;;;12.26;100.00;96499.75;18527690;32;20396;-62
2022/11/16 13:08:10;;;;;;;2.00;0.50;;;;;;;11.77;100.00;96488.69;18545768;32;20101;-62
2022/11/16 13:18:18;;;;;;;2.92;0.50;;;;;;;11.53;100.00;96476.22;18546394;32;20056;-62
2022/11/16 13:28:51;;;;;;;1.87;0.73;;;;;;;11.39;100.00;96465.44;18560905;32;20108;-62
2022/11/16 13:38:55;;;;;;;1.08;0.47;;;;;;;11.15;100.00;96460.28;18559802;32;20105;-62
2022/11/16 13:48:59;;;;;;;1.47;0.40;;;;;;;10.98;100.00;96463.63;18557167;32;20061;-62
2022/11/16 13:59:03;;;;;;;;;;;;;;;10.78;100.00;96449.41;18555794;32;20056;-62
2022/11/16 14:09:42;;;;;;;2.60;0.43;;;;;;;10.62;100.00;96439.97;18559091;32;20011;-62
2022/11/16 14:19:53;;;;;;;1.37;0.40;;;;;;;10.33;100.00;96438.34;18564186;32;20045;-62
2022/11/16 14:30:16;;;;;;;2.67;0.40;;;;;;;10.21;100.00;96438.03;18556730;32;20061;-62
2022/11/16 14:40:19;;;;;;;2.65;0.50;;;;;;;10.30;100.00;96428.94;18569900;32;20060;-62
2022/11/16 14:50:26;;;;;;;1.52;0.50;;;;;;;10.23;100.00;96412.31;18568736;32;20069;-62
2022/11/16 15:00:29;;;;;;;1.30;0.60;;;;;;;10.03;100.00;96412.69;18554078;32;20052;-62
2022/11/16 15:10:32;;;;;;;1.60;0.87;;;;;;;9.81;100.00;96395.22;18541335;32;20068;-62
2022/11/16 15:32:26;;;;;;;2.00;1.30;;;;;;;9.42;100.00;96388.34;18565941;32;20061;-62
2022/11/16 15:42:30;;;;;;;3.40;1.73;;;;;;;9.21;100.00;96364.38;18559025;32;20060;-62
2022/11/16 15:52:53;;;;;;;2.40;1.77;;;;;;;8.88;100.00;96360.78;18565675;32;20385;-62
2022/11/16 16:15:21;;;;;;;5.83;3.37;;;;;;;8.45;100.00;96356.25;18404455;32;20370;-62
2022/11/16 16:25:38;;;;;;;3.60;1.60;;;;;;;8.36;100.00;96336.38;18360212;32;20081;-62
2022/11/16 16:36:01;;;;;;;1.10;0.80;;;;;;;8.28;100.00;96335.16;18431673;32;20076;-62
2022/11/16 17:08:51;;;;;;;1.73;0.93;;;;;;;7.47;100.00;96317.69;18431931;32;20453;-62
2022/11/16 18:03:36;;;;;;;2.77;1.30;;;;;;;6.82;100.00;96253.44;18572311;32;20064;-62
2022/11/16 18:25:10;;;;;;;3.73;2.10;;;;;;;6.36;100.00;96192.00;18548121;32;20372;-62
2022/11/16 18:36:02;;;;;;;4.43;2.00;;;;;;;6.12;100.00;96170.44;18570080;32;20078;-62
2022/11/16 18:46:06;;;;;;;3.73;2.50;;;;;;;5.93;100.00;96158.47;18569509;32;20108;-62
2022/11/16 18:56:11;;;;;;;7.13;3.33;;;;;;;5.81;100.00;96173.25;18568953;32;20076;-62
2022/11/16 22:58:03;;;;;;;4.05;2.35;;;;;;;7.25;100.00;96067.31;18489831;32;20087;-62
2022/11/16 23:08:12;;;;;;;4.13;2.93;;;;;;;7.34;100.00;95986.84;18503124;32;20057;-62
2022/11/16 23:30:00;;;;;;;8.73;3.10;;;;;;;7.42;100.00;96002.31;18502114;32;20108;-63
